sensor_id;sensor_type;location;lat;lon;timestamp;temperature;humidity
51825;DHT22;37879;52.986;6.282;2023-05-29T00:02:22;9.20;99.90
51825;DHT22;37879;52.986;6.282;2023-05-29T00:04:47;9.20;99.90
51825;DHT22;37879;52.986;6.282;2023-05-29T00:07:13;9.10;99.90
51825;DHT22;37879;52.986;6.282;2023-05-29T00:09:38;9.10;99.90
51825;DHT22;37879;52.986;6.282;2023-05-29T00:12:05;9.10;99.90
51825;DHT22;37879;52.986;6.282;2023-05-29T00:14:31;9.00;99.90
51825;DHT22;37879;52.986;6.282;2023-05-29T00:16:56;9.00;99.90
51825;DHT22;37879;52.986;6.282;2023-05-29T00:19:22;9.00;99.90
51825;DHT22;37879;52.986;6.282;2023-05-29T00:21:50;9.00;99.90
51825;DHT22;37879;52.986;6.282;2023-05-29T00:24:16;9.00;99.90
51825;DHT22;37879;52.986;6.282;2023-05-29T00:26:42;9.00;99.90
51825;DHT22;37879;52.986;6.282;2023-05-29T00:29:08;8.90;99.90
51825;DHT22;37879;52.986;6.282;2023-05-29T00:31:34;8.90;99.90
51825;DHT22;37879;52.986;6.282;2023-05-29T00:34:02;9.30;99.90
51825;DHT22;37879;52.986;6.282;2023-05-29T00:36:27;9.00;99.90
51825;DHT22;37879;52.986;6.282;2023-05-29T00:38:55;8.90;99.90
51825;DHT22;37879;52.986;6.282;2023-05-29T00:41:21;8.90;99.90
51825;DHT22;37879;52.986;6.282;2023-05-29T00:43:46;8.80;99.90
51825;DHT22;37879;52.986;6.282;2023-05-29T00:46:14;8.80;99.90
51825;DHT22;37879;52.986;6.282;2023-05-29T00:48:41;8.70;99.90
51825;DHT22;37879;52.986;6.282;2023-05-29T00:51:09;8.80;99.90
51825;DHT22;37879;52.986;6.282;2023-05-29T00:53:36;8.70;99.90
51825;DHT22;37879;52.986;6.282;2023-05-29T00:56:02;8.70;99.90
51825;DHT22;37879;52.986;6.282;2023-05-29T00:58:28;8.70;99.90
51825;DHT22;37879;52.986;6.282;2023-05-29T01:00:54;8.70;99.90
51825;DHT22;37879;52.986;6.282;2023-05-29T01:03:20;8.70;99.90
51825;DHT22;37879;52.986;6.282;2023-05-29T01:05:48;8.60;99.90
51825;DHT22;37879;52.986;6.282;2023-05-29T01:08:14;8.60;99.90
51825;DHT22;37879;52.986;6.282;2023-05-29T01:10:40;8.60;99.90
51825;DHT22;37879;52.986;6.282;2023-05-29T01:13:18;8.60;99.90
51825;DHT22;37879;52.986;6.282;2023-05-29T01:15:46;8.60;99.90
51825;DHT22;37879;52.986;6.282;2023-05-29T01:18:30;8.50;99.90
51825;DHT22;37879;52.986;6.282;2023-05-29T01:21:06;8.50;99.90
51825;DHT22;37879;52.986;6.282;2023-05-29T01:23:50;8.50;99.90
51825;DHT22;37879;52.986;6.282;2023-05-29T01:29:07;8.50;99.90
51825;DHT22;37879;52.986;6.282;2023-05-29T01:31:34;8.50;99.90
51825;DHT22;37879;52.986;6.282;2023-05-29T01:34:01;8.50;99.90
51825;DHT22;37879;52.986;6.282;2023-05-29T01:36:27;8.40;99.90
51825;DHT22;37879;52.986;6.282;2023-05-29T01:38:55;8.40;99.90
51825;DHT22;37879;52.986;6.282;2023-05-29T01:41:22;8.40;99.90
51825;DHT22;37879;52.986;6.282;2023-05-29T01:43:49;8.40;99.90
51825;DHT22;37879;52.986;6.282;2023-05-29T01:46:16;8.40;99.90
51825;DHT22;37879;52.986;6.282;2023-05-29T01:48:43;8.40;99.90
51825;DHT22;37879;52.986;6.282;2023-05-29T01:51:09;8.40;99.90
51825;DHT22;37879;52.986;6.282;2023-05-29T01:53:39;8.40;99.90
51825;DHT22;37879;52.986;6.282;2023-05-29T01:56:06;8.30;99.90
51825;DHT22;37879;52.986;6.282;2023-05-29T01:58:33;8.30;99.90
51825;DHT22;37879;52.986;6.282;2023-05-29T02:01:01;8.30;99.90
51825;DHT22;37879;52.986;6.282;2023-05-29T02:03:26;8.30;99.90
51825;DHT22;37879;52.986;6.282;2023-05-29T02:05:59;8.30;99.90
51825;DHT22;37879;52.986;6.282;2023-05-29T02:08:25;8.30;99.90
51825;DHT22;37879;52.986;6.282;2023-05-29T02:10:51;8.30;99.90
51825;DHT22;37879;52.986;6.282;2023-05-29T02:13:17;8.20;99.90
51825;DHT22;37879;52.986;6.282;2023-05-29T02:15:43;8.20;99.90
51825;DHT22;37879;52.986;6.282;2023-05-29T02:18:10;8.20;99.90
51825;DHT22;37879;52.986;6.282;2023-05-29T02:20:37;8.20;99.90
51825;DHT22;37879;52.986;6.282;2023-05-29T02:23:03;8.20;99.90
51825;DHT22;37879;52.986;6.282;2023-05-29T02:25:29;8.30;99.90
51825;DHT22;37879;52.986;6.282;2023-05-29T02:27:54;8.30;99.90
51825;DHT22;37879;52.986;6.282;2023-05-29T02:30:20;8.30;99.90
51825;DHT22;37879;52.986;6.282;2023-05-29T02:32:45;8.20;99.90
51825;DHT22;37879;52.986;6.282;2023-05-29T02:35:12;8.20;99.90
51825;DHT22;37879;52.986;6.282;2023-05-29T02:37:40;8.20;99.90
51825;DHT22;37879;52.986;6.282;2023-05-29T02:40:06;8.20;99.90
51825;DHT22;37879;52.986;6.282;2023-05-29T02:42:33;8.10;99.90
51825;DHT22;37879;52.986;6.282;2023-05-29T02:44:59;8.10;99.90
51825;DHT22;37879;52.986;6.282;2023-05-29T02:47:25;8.00;99.90
51825;DHT22;37879;52.986;6.282;2023-05-29T02:49:50;8.00;99.90
51825;DHT22;37879;52.986;6.282;2023-05-29T02:52:16;7.90;99.90
51825;DHT22;37879;52.986;6.282;2023-05-29T02:54:41;7.90;99.90
51825;DHT22;37879;52.986;6.282;2023-05-29T02:57:07;7.80;99.90
51825;DHT22;37879;52.986;6.282;2023-05-29T02:59:33;7.80;99.90
51825;DHT22;37879;52.986;6.282;2023-05-29T03:01:58;7.70;99.90
51825;DHT22;37879;52.986;6.282;2023-05-29T03:04:24;8.10;99.90
51825;DHT22;37879;52.986;6.282;2023-05-29T03:06:49;7.70;99.90
51825;DHT22;37879;52.986;6.282;2023-05-29T03:09:15;7.70;99.90
51825;DHT22;37879;52.986;6.282;2023-05-29T03:11:42;7.70;99.90
51825;DHT22;37879;52.986;6.282;2023-05-29T03:14:08;7.70;99.90
51825;DHT22;37879;52.986;6.282;2023-05-29T03:16:34;7.70;99.90
51825;DHT22;37879;52.986;6.282;2023-05-29T03:19:01;7.70;99.90
51825;DHT22;37879;52.986;6.282;2023-05-29T03:21:27;7.70;99.90
51825;DHT22;37879;52.986;6.282;2023-05-29T03:23:52;7.70;99.90
51825;DHT22;37879;52.986;6.282;2023-05-29T03:26:18;7.70;99.90
51825;DHT22;37879;52.986;6.282;2023-05-29T03:28:44;7.70;99.90
51825;DHT22;37879;52.986;6.282;2023-05-29T03:31:09;7.60;99.90
51825;DHT22;37879;52.986;6.282;2023-05-29T03:33:36;7.70;99.90
51825;DHT22;37879;52.986;6.282;2023-05-29T03:36:01;7.70;99.90
51825;DHT22;37879;52.986;6.282;2023-05-29T03:38:27;7.60;99.90
51825;DHT22;37879;52.986;6.282;2023-05-29T03:40:54;7.70;99.90
51825;DHT22;37879;52.986;6.282;2023-05-29T03:43:19;7.60;99.90
51825;DHT22;37879;52.986;6.282;2023-05-29T03:45:45;7.60;99.90
51825;DHT22;37879;52.986;6.282;2023-05-29T03:48:11;7.60;99.90
51825;DHT22;37879;52.986;6.282;2023-05-29T03:50:36;7.60;99.90
51825;DHT22;37879;52.986;6.282;2023-05-29T03:53:02;7.70;99.90
51825;DHT22;37879;52.986;6.282;2023-05-29T03:55:27;7.70;99.90
51825;DHT22;37879;52.986;6.282;2023-05-29T03:57:53;7.70;99.90
51825;DHT22;37879;52.986;6.282;2023-05-29T04:00:20;8.10;99.90
51825;DHT22;37879;52.986;6.282;2023-05-29T04:02:46;7.70;99.90
51825;DHT22;37879;52.986;6.282;2023-05-29T04:05:12;7.70;99.90
51825;DHT22;37879;52.986;6.282;2023-05-29T04:07:38;7.70;99.90
51825;DHT22;37879;52.986;6.282;2023-05-29T04:10:05;7.70;99.90
51825;DHT22;37879;52.986;6.282;2023-05-29T04:12:31;7.80;99.90
51825;DHT22;37879;52.986;6.282;2023-05-29T04:14:57;7.80;99.90
51825;DHT22;37879;52.986;6.282;2023-05-29T04:17:23;7.80;99.90
51825;DHT22;37879;52.986;6.282;2023-05-29T04:19:48;7.90;99.90
51825;DHT22;37879;52.986;6.282;2023-05-29T04:22:14;7.90;99.90
51825;DHT22;37879;52.986;6.282;2023-05-29T04:24:40;8.00;99.90
51825;DHT22;37879;52.986;6.282;2023-05-29T04:27:10;8.10;99.90
51825;DHT22;37879;52.986;6.282;2023-05-29T04:29:42;8.20;99.90
51825;DHT22;37879;52.986;6.282;2023-05-29T04:32:08;8.30;99.90
51825;DHT22;37879;52.986;6.282;2023-05-29T04:34:35;8.40;99.90
51825;DHT22;37879;52.986;6.282;2023-05-29T04:37:02;8.50;99.90
51825;DHT22;37879;52.986;6.282;2023-05-29T04:39:28;8.70;99.90
51825;DHT22;37879;52.986;6.282;2023-05-29T04:41:54;8.70;99.90
51825;DHT22;37879;52.986;6.282;2023-05-29T04:44:21;8.90;99.90
51825;DHT22;37879;52.986;6.282;2023-05-29T04:46:47;9.00;99.90
51825;DHT22;37879;52.986;6.282;2023-05-29T04:49:13;9.10;99.90
51825;DHT22;37879;52.986;6.282;2023-05-29T04:51:39;9.10;99.90
51825;DHT22;37879;52.986;6.282;2023-05-29T04:54:08;9.20;99.90
51825;DHT22;37879;52.986;6.282;2023-05-29T04:56:37;9.30;99.90
51825;DHT22;37879;52.986;6.282;2023-05-29T04:59:06;9.40;99.90
51825;DHT22;37879;52.986;6.282;2023-05-29T05:01:32;9.50;99.90
51825;DHT22;37879;52.986;6.282;2023-05-29T05:03:59;9.60;99.90
51825;DHT22;37879;52.986;6.282;2023-05-29T05:06:25;9.70;99.90
51825;DHT22;37879;52.986;6.282;2023-05-29T05:08:52;9.80;99.90
51825;DHT22;37879;52.986;6.282;2023-05-29T05:11:23;9.90;99.90
51825;DHT22;37879;52.986;6.282;2023-05-29T05:13:49;10.10;99.90
51825;DHT22;37879;52.986;6.282;2023-05-29T05:16:14;10.20;99.90
51825;DHT22;37879;52.986;6.282;2023-05-29T05:18:40;10.40;99.90
51825;DHT22;37879;52.986;6.282;2023-05-29T05:21:06;10.60;99.90
51825;DHT22;37879;52.986;6.282;2023-05-29T05:23:32;10.60;99.90
51825;DHT22;37879;52.986;6.282;2023-05-29T05:25:58;10.60;99.90
51825;DHT22;37879;52.986;6.282;2023-05-29T05:28:24;10.70;99.90
51825;DHT22;37879;52.986;6.282;2023-05-29T05:30:49;10.80;99.90
51825;DHT22;37879;52.986;6.282;2023-05-29T05:33:15;11.00;99.90
51825;DHT22;37879;52.986;6.282;2023-05-29T05:35:40;11.10;99.90
51825;DHT22;37879;52.986;6.282;2023-05-29T05:38:06;11.10;99.90
51825;DHT22;37879;52.986;6.282;2023-05-29T05:40:32;11.20;99.90
51825;DHT22;37879;52.986;6.282;2023-05-29T05:42:58;11.20;99.90
51825;DHT22;37879;52.986;6.282;2023-05-29T05:45:23;11.50;99.90
51825;DHT22;37879;52.986;6.282;2023-05-29T05:47:49;11.20;99.90
51825;DHT22;37879;52.986;6.282;2023-05-29T05:50:15;11.30;99.90
51825;DHT22;37879;52.986;6.282;2023-05-29T05:52:41;11.20;99.90
51825;DHT22;37879;52.986;6.282;2023-05-29T05:55:07;11.50;99.90
51825;DHT22;37879;52.986;6.282;2023-05-29T05:57:33;11.50;99.90
51825;DHT22;37879;52.986;6.282;2023-05-29T06:00:03;11.50;99.90
51825;DHT22;37879;52.986;6.282;2023-05-29T06:02:37;11.50;99.90
51825;DHT22;37879;52.986;6.282;2023-05-29T06:05:03;11.40;99.90
51825;DHT22;37879;52.986;6.282;2023-05-29T06:07:29;11.40;99.90
51825;DHT22;37879;52.986;6.282;2023-05-29T06:09:55;11.20;99.90
51825;DHT22;37879;52.986;6.282;2023-05-29T06:12:21;11.20;99.90
51825;DHT22;37879;52.986;6.282;2023-05-29T06:14:46;11.10;99.90
51825;DHT22;37879;52.986;6.282;2023-05-29T06:17:12;11.20;99.90
51825;DHT22;37879;52.986;6.282;2023-05-29T06:19:38;11.20;99.90
51825;DHT22;37879;52.986;6.282;2023-05-29T06:22:04;11.30;99.90
51825;DHT22;37879;52.986;6.282;2023-05-29T06:24:30;11.30;99.90
51825;DHT22;37879;52.986;6.282;2023-05-29T06:26:56;11.30;99.90
51825;DHT22;37879;52.986;6.282;2023-05-29T06:29:21;11.40;99.90
51825;DHT22;37879;52.986;6.282;2023-05-29T06:31:47;11.30;99.90
51825;DHT22;37879;52.986;6.282;2023-05-29T06:34:12;11.00;99.90
51825;DHT22;37879;52.986;6.282;2023-05-29T06:36:38;11.40;99.90
51825;DHT22;37879;52.986;6.282;2023-05-29T06:39:05;11.40;99.90
51825;DHT22;37879;52.986;6.282;2023-05-29T06:41:31;11.50;99.90
51825;DHT22;37879;52.986;6.282;2023-05-29T06:43:56;11.50;99.90
51825;DHT22;37879;52.986;6.282;2023-05-29T06:46:22;11.50;99.90
51825;DHT22;37879;52.986;6.282;2023-05-29T06:48:47;11.50;99.90
51825;DHT22;37879;52.986;6.282;2023-05-29T06:51:13;11.50;99.90
51825;DHT22;37879;52.986;6.282;2023-05-29T06:53:39;11.60;99.90
51825;DHT22;37879;52.986;6.282;2023-05-29T06:56:05;11.80;99.90
51825;DHT22;37879;52.986;6.282;2023-05-29T06:58:31;11.70;99.90
51825;DHT22;37879;52.986;6.282;2023-05-29T07:00:57;11.80;99.90
51825;DHT22;37879;52.986;6.282;2023-05-29T07:03:25;11.80;99.90
51825;DHT22;37879;52.986;6.282;2023-05-29T07:05:51;11.90;99.90
51825;DHT22;37879;52.986;6.282;2023-05-29T07:08:17;12.00;99.90
51825;DHT22;37879;52.986;6.282;2023-05-29T07:10:43;12.10;99.90
51825;DHT22;37879;52.986;6.282;2023-05-29T07:13:08;12.30;99.90
51825;DHT22;37879;52.986;6.282;2023-05-29T07:15:34;12.40;99.90
51825;DHT22;37879;52.986;6.282;2023-05-29T07:18:00;12.40;99.90
51825;DHT22;37879;52.986;6.282;2023-05-29T07:20:26;12.50;99.90
51825;DHT22;37879;52.986;6.282;2023-05-29T07:22:51;12.50;99.90
51825;DHT22;37879;52.986;6.282;2023-05-29T07:25:17;12.50;99.90
51825;DHT22;37879;52.986;6.282;2023-05-29T07:27:43;12.50;99.90
51825;DHT22;37879;52.986;6.282;2023-05-29T07:30:09;12.60;99.90
51825;DHT22;37879;52.986;6.282;2023-05-29T07:32:35;12.60;99.90
51825;DHT22;37879;52.986;6.282;2023-05-29T07:35:01;12.60;99.90
51825;DHT22;37879;52.986;6.282;2023-05-29T07:37:26;12.70;99.90
51825;DHT22;37879;52.986;6.282;2023-05-29T07:39:52;12.90;99.90
51825;DHT22;37879;52.986;6.282;2023-05-29T07:42:18;13.00;99.90
51825;DHT22;37879;52.986;6.282;2023-05-29T07:44:44;13.00;99.90
51825;DHT22;37879;52.986;6.282;2023-05-29T07:47:11;13.00;99.90
51825;DHT22;37879;52.986;6.282;2023-05-29T07:49:37;13.00;99.90
51825;DHT22;37879;52.986;6.282;2023-05-29T07:52:03;13.00;99.90
51825;DHT22;37879;52.986;6.282;2023-05-29T07:54:30;13.10;99.90
51825;DHT22;37879;52.986;6.282;2023-05-29T07:56:58;13.10;99.90
51825;DHT22;37879;52.986;6.282;2023-05-29T07:59:25;14.10;99.90
51825;DHT22;37879;52.986;6.282;2023-05-29T08:01:50;13.40;99.90
51825;DHT22;37879;52.986;6.282;2023-05-29T08:04:16;13.10;99.90
51825;DHT22;37879;52.986;6.282;2023-05-29T08:06:41;12.90;99.90
51825;DHT22;37879;52.986;6.282;2023-05-29T08:09:09;12.90;99.90
51825;DHT22;37879;52.986;6.282;2023-05-29T08:11:36;13.10;99.90
51825;DHT22;37879;52.986;6.282;2023-05-29T08:14:02;13.10;99.90
51825;DHT22;37879;52.986;6.282;2023-05-29T08:16:28;13.10;99.90
51825;DHT22;37879;52.986;6.282;2023-05-29T08:18:54;13.20;99.90
51825;DHT22;37879;52.986;6.282;2023-05-29T08:21:19;13.10;99.90
51825;DHT22;37879;52.986;6.282;2023-05-29T08:23:45;13.10;99.90
51825;DHT22;37879;52.986;6.282;2023-05-29T08:26:11;13.20;99.90
51825;DHT22;37879;52.986;6.282;2023-05-29T08:28:37;13.10;99.90
51825;DHT22;37879;52.986;6.282;2023-05-29T08:31:03;13.20;99.90
51825;DHT22;37879;52.986;6.282;2023-05-29T08:33:29;13.20;99.90
51825;DHT22;37879;52.986;6.282;2023-05-29T08:35:58;13.40;99.90
51825;DHT22;37879;52.986;6.282;2023-05-29T08:38:23;13.40;99.90
51825;DHT22;37879;52.986;6.282;2023-05-29T08:40:51;13.40;99.90
51825;DHT22;37879;52.986;6.282;2023-05-29T08:43:21;13.40;99.90
51825;DHT22;37879;52.986;6.282;2023-05-29T08:45:48;13.30;99.90
51825;DHT22;37879;52.986;6.282;2023-05-29T08:48:18;13.30;99.90
51825;DHT22;37879;52.986;6.282;2023-05-29T08:50:45;13.10;99.90
51825;DHT22;37879;52.986;6.282;2023-05-29T08:53:14;13.10;99.90
51825;DHT22;37879;52.986;6.282;2023-05-29T08:55:41;13.20;99.90
51825;DHT22;37879;52.986;6.282;2023-05-29T08:58:07;13.40;99.90
51825;DHT22;37879;52.986;6.282;2023-05-29T09:00:33;13.50;99.90
51825;DHT22;37879;52.986;6.282;2023-05-29T09:03:02;13.50;99.90
51825;DHT22;37879;52.986;6.282;2023-05-29T09:05:28;13.60;99.90
51825;DHT22;37879;52.986;6.282;2023-05-29T09:07:55;13.70;99.90
51825;DHT22;37879;52.986;6.282;2023-05-29T09:10:21;13.80;99.90
51825;DHT22;37879;52.986;6.282;2023-05-29T09:12:53;13.90;99.90
51825;DHT22;37879;52.986;6.282;2023-05-29T09:15:23;13.90;99.90
51825;DHT22;37879;52.986;6.282;2023-05-29T09:17:58;13.80;99.90
51825;DHT22;37879;52.986;6.282;2023-05-29T09:20:25;13.70;99.90
51825;DHT22;37879;52.986;6.282;2023-05-29T09:22:58;13.70;99.90
51825;DHT22;37879;52.986;6.282;2023-05-29T09:25:25;13.60;99.90
51825;DHT22;37879;52.986;6.282;2023-05-29T09:30:36;13.50;99.90
51825;DHT22;37879;52.986;6.282;2023-05-29T09:33:03;13.50;99.90
51825;DHT22;37879;52.986;6.282;2023-05-29T09:35:33;13.40;99.90
51825;DHT22;37879;52.986;6.282;2023-05-29T09:38:00;13.40;99.90
51825;DHT22;37879;52.986;6.282;2023-05-29T09:40:26;13.50;99.90
51825;DHT22;37879;52.986;6.282;2023-05-29T09:42:54;13.50;99.90
51825;DHT22;37879;52.986;6.282;2023-05-29T09:45:21;13.60;99.90
51825;DHT22;37879;52.986;6.282;2023-05-29T09:47:47;13.60;99.90
51825;DHT22;37879;52.986;6.282;2023-05-29T09:50:20;13.70;99.90
51825;DHT22;37879;52.986;6.282;2023-05-29T09:52:50;13.70;99.90
51825;DHT22;37879;52.986;6.282;2023-05-29T09:55:19;13.80;99.90
51825;DHT22;37879;52.986;6.282;2023-05-29T09:57:47;13.90;99.90
51825;DHT22;37879;52.986;6.282;2023-05-29T10:00:17;14.00;99.90
51825;DHT22;37879;52.986;6.282;2023-05-29T10:02:43;14.00;99.90
51825;DHT22;37879;52.986;6.282;2023-05-29T10:05:09;13.90;99.90
51825;DHT22;37879;52.986;6.282;2023-05-29T10:07:37;13.90;99.90
51825;DHT22;37879;52.986;6.282;2023-05-29T10:10:06;13.90;99.90
51825;DHT22;37879;52.986;6.282;2023-05-29T10:12:38;13.90;99.90
51825;DHT22;37879;52.986;6.282;2023-05-29T10:15:11;13.80;99.90
51825;DHT22;37879;52.986;6.282;2023-05-29T10:17:38;13.70;99.90
51825;DHT22;37879;52.986;6.282;2023-05-29T10:20:06;13.70;99.90
51825;DHT22;37879;52.986;6.282;2023-05-29T10:22:33;13.80;99.90
51825;DHT22;37879;52.986;6.282;2023-05-29T10:25:01;13.80;99.90
51825;DHT22;37879;52.986;6.282;2023-05-29T10:27:27;13.80;99.90
51825;DHT22;37879;52.986;6.282;2023-05-29T10:30:06;13.90;99.90
51825;DHT22;37879;52.986;6.282;2023-05-29T10:32:42;14.10;99.90
51825;DHT22;37879;52.986;6.282;2023-05-29T10:35:14;14.10;99.90
51825;DHT22;37879;52.986;6.282;2023-05-29T10:40:26;14.30;99.90
51825;DHT22;37879;52.986;6.282;2023-05-29T10:42:53;14.30;99.90
51825;DHT22;37879;52.986;6.282;2023-05-29T10:50:43;14.30;99.90
51825;DHT22;37879;52.986;6.282;2023-05-29T10:53:14;14.30;99.90
51825;DHT22;37879;52.986;6.282;2023-05-29T10:55:41;14.40;99.90
51825;DHT22;37879;52.986;6.282;2023-05-29T10:58:18;14.50;99.90
51825;DHT22;37879;52.986;6.282;2023-05-29T11:00:45;14.50;99.90
51825;DHT22;37879;52.986;6.282;2023-05-29T11:03:14;14.60;99.90
51825;DHT22;37879;52.986;6.282;2023-05-29T11:06:28;14.60;99.90
51825;DHT22;37879;52.986;6.282;2023-05-29T11:08:54;14.70;99.90
51825;DHT22;37879;52.986;6.282;2023-05-29T11:11:33;14.80;99.90
51825;DHT22;37879;52.986;6.282;2023-05-29T11:14:05;14.90;99.90
51825;DHT22;37879;52.986;6.282;2023-05-29T11:18:59;15.00;99.90
51825;DHT22;37879;52.986;6.282;2023-05-29T11:21:38;15.00;99.90
51825;DHT22;37879;52.986;6.282;2023-05-29T11:24:21;14.90;99.90
51825;DHT22;37879;52.986;6.282;2023-05-29T11:26:48;15.00;99.90
51825;DHT22;37879;52.986;6.282;2023-05-29T11:29:15;15.00;99.90
51825;DHT22;37879;52.986;6.282;2023-05-29T11:31:43;15.00;99.90
51825;DHT22;37879;52.986;6.282;2023-05-29T11:34:09;14.90;99.90
51825;DHT22;37879;52.986;6.282;2023-05-29T11:36:39;15.00;99.90
51825;DHT22;37879;52.986;6.282;2023-05-29T11:39:05;14.90;99.90
51825;DHT22;37879;52.986;6.282;2023-05-29T11:41:30;14.90;99.90
51825;DHT22;37879;52.986;6.282;2023-05-29T11:44:00;14.90;99.90
51825;DHT22;37879;52.986;6.282;2023-05-29T11:46:31;15.00;99.90
51825;DHT22;37879;52.986;6.282;2023-05-29T11:48:58;15.20;99.90
51825;DHT22;37879;52.986;6.282;2023-05-29T11:51:24;15.10;99.90
51825;DHT22;37879;52.986;6.282;2023-05-29T11:53:50;15.00;99.90
51825;DHT22;37879;52.986;6.282;2023-05-29T11:56:18;14.90;99.90
51825;DHT22;37879;52.986;6.282;2023-05-29T11:58:45;14.80;99.90
51825;DHT22;37879;52.986;6.282;2023-05-29T12:01:11;14.80;99.90
51825;DHT22;37879;52.986;6.282;2023-05-29T12:03:41;14.80;99.90
51825;DHT22;37879;52.986;6.282;2023-05-29T12:06:08;14.90;99.90
51825;DHT22;37879;52.986;6.282;2023-05-29T12:08:35;15.20;99.90
51825;DHT22;37879;52.986;6.282;2023-05-29T12:11:00;15.30;99.90
51825;DHT22;37879;52.986;6.282;2023-05-29T12:13:26;15.40;99.90
51825;DHT22;37879;52.986;6.282;2023-05-29T12:15:55;15.50;99.90
51825;DHT22;37879;52.986;6.282;2023-05-29T12:18:22;15.80;99.90
51825;DHT22;37879;52.986;6.282;2023-05-29T12:20:47;15.60;99.90
51825;DHT22;37879;52.986;6.282;2023-05-29T12:23:13;15.50;99.90
51825;DHT22;37879;52.986;6.282;2023-05-29T12:25:39;15.50;99.90
51825;DHT22;37879;52.986;6.282;2023-05-29T12:28:05;15.60;99.90
51825;DHT22;37879;52.986;6.282;2023-05-29T12:30:36;15.60;99.90
51825;DHT22;37879;52.986;6.282;2023-05-29T12:33:02;15.50;99.90
51825;DHT22;37879;52.986;6.282;2023-05-29T12:35:28;15.60;99.90
51825;DHT22;37879;52.986;6.282;2023-05-29T12:38:01;15.70;99.90
51825;DHT22;37879;52.986;6.282;2023-05-29T12:40:29;15.80;99.90
51825;DHT22;37879;52.986;6.282;2023-05-29T12:42:56;15.80;99.90
51825;DHT22;37879;52.986;6.282;2023-05-29T12:45:24;15.70;99.90
51825;DHT22;37879;52.986;6.282;2023-05-29T12:50:25;15.90;99.90
51825;DHT22;37879;52.986;6.282;2023-05-29T12:52:55;15.90;99.90
51825;DHT22;37879;52.986;6.282;2023-05-29T12:55:20;15.90;99.90
51825;DHT22;37879;52.986;6.282;2023-05-29T12:57:46;15.80;99.90
51825;DHT22;37879;52.986;6.282;2023-05-29T13:00:13;15.90;99.90
51825;DHT22;37879;52.986;6.282;2023-05-29T13:02:38;15.80;99.90
51825;DHT22;37879;52.986;6.282;2023-05-29T13:05:04;15.70;99.90
51825;DHT22;37879;52.986;6.282;2023-05-29T13:07:31;15.60;99.90
51825;DHT22;37879;52.986;6.282;2023-05-29T13:09:57;15.80;99.90
51825;DHT22;37879;52.986;6.282;2023-05-29T13:12:23;15.80;99.90
51825;DHT22;37879;52.986;6.282;2023-05-29T13:14:48;15.80;99.90
51825;DHT22;37879;52.986;6.282;2023-05-29T13:17:14;15.80;99.90
51825;DHT22;37879;52.986;6.282;2023-05-29T13:19:40;15.70;99.90
51825;DHT22;37879;52.986;6.282;2023-05-29T13:22:05;15.70;99.90
51825;DHT22;37879;52.986;6.282;2023-05-29T13:24:31;15.70;99.90
51825;DHT22;37879;52.986;6.282;2023-05-29T13:26:56;15.60;99.90
51825;DHT22;37879;52.986;6.282;2023-05-29T13:29:22;15.60;99.90
51825;DHT22;37879;52.986;6.282;2023-05-29T13:31:47;15.60;99.90
51825;DHT22;37879;52.986;6.282;2023-05-29T13:34:13;15.60;99.90
51825;DHT22;37879;52.986;6.282;2023-05-29T13:36:39;15.90;99.90
51825;DHT22;37879;52.986;6.282;2023-05-29T13:39:04;15.90;99.90
51825;DHT22;37879;52.986;6.282;2023-05-29T13:41:31;15.90;99.90
51825;DHT22;37879;52.986;6.282;2023-05-29T13:43:56;16.10;99.90
51825;DHT22;37879;52.986;6.282;2023-05-29T13:46:22;16.10;99.90
51825;DHT22;37879;52.986;6.282;2023-05-29T13:48:48;16.30;99.90
51825;DHT22;37879;52.986;6.282;2023-05-29T13:51:13;16.30;99.90
51825;DHT22;37879;52.986;6.282;2023-05-29T13:53:39;16.30;99.90
51825;DHT22;37879;52.986;6.282;2023-05-29T13:56:05;16.20;99.90
51825;DHT22;37879;52.986;6.282;2023-05-29T13:58:30;16.00;99.90
51825;DHT22;37879;52.986;6.282;2023-05-29T14:00:56;16.00;99.90
51825;DHT22;37879;52.986;6.282;2023-05-29T14:03:22;16.00;99.90
51825;DHT22;37879;52.986;6.282;2023-05-29T14:05:50;15.90;99.90
51825;DHT22;37879;52.986;6.282;2023-05-29T14:08:16;15.80;99.90
51825;DHT22;37879;52.986;6.282;2023-05-29T14:10:41;15.70;99.90
51825;DHT22;37879;52.986;6.282;2023-05-29T14:13:07;15.80;99.90
51825;DHT22;37879;52.986;6.282;2023-05-29T14:15:33;16.10;99.90
51825;DHT22;37879;52.986;6.282;2023-05-29T14:17:58;15.80;99.90
51825;DHT22;37879;52.986;6.282;2023-05-29T14:20:24;15.90;99.90
51825;DHT22;37879;52.986;6.282;2023-05-29T14:22:49;15.80;99.90
51825;DHT22;37879;52.986;6.282;2023-05-29T14:25:15;15.70;99.90
51825;DHT22;37879;52.986;6.282;2023-05-29T14:27:41;15.80;99.90
51825;DHT22;37879;52.986;6.282;2023-05-29T14:30:07;15.90;99.90
51825;DHT22;37879;52.986;6.282;2023-05-29T14:32:32;15.90;99.90
51825;DHT22;37879;52.986;6.282;2023-05-29T14:34:58;15.90;99.90
51825;DHT22;37879;52.986;6.282;2023-05-29T14:37:24;15.60;99.90
51825;DHT22;37879;52.986;6.282;2023-05-29T14:39:49;15.80;99.90
51825;DHT22;37879;52.986;6.282;2023-05-29T14:42:15;15.90;99.90
51825;DHT22;37879;52.986;6.282;2023-05-29T14:44:41;15.90;99.90
51825;DHT22;37879;52.986;6.282;2023-05-29T14:47:07;15.70;99.90
51825;DHT22;37879;52.986;6.282;2023-05-29T14:49:33;15.70;99.90
51825;DHT22;37879;52.986;6.282;2023-05-29T14:52:02;15.70;99.90
51825;DHT22;37879;52.986;6.282;2023-05-29T14:54:29;15.70;99.90
51825;DHT22;37879;52.986;6.282;2023-05-29T14:56:55;15.60;99.90
51825;DHT22;37879;52.986;6.282;2023-05-29T14:59:23;15.90;99.90
51825;DHT22;37879;52.986;6.282;2023-05-29T15:01:49;16.00;99.90
51825;DHT22;37879;52.986;6.282;2023-05-29T15:04:16;15.90;99.90
51825;DHT22;37879;52.986;6.282;2023-05-29T15:06:41;15.90;99.80
51825;DHT22;37879;52.986;6.282;2023-05-29T15:09:07;15.90;99.90
51825;DHT22;37879;52.986;6.282;2023-05-29T15:11:33;15.90;99.90
51825;DHT22;37879;52.986;6.282;2023-05-29T15:13:58;15.90;99.90
51825;DHT22;37879;52.986;6.282;2023-05-29T15:16:24;16.10;99.90
51825;DHT22;37879;52.986;6.282;2023-05-29T15:18:50;16.20;99.90
51825;DHT22;37879;52.986;6.282;2023-05-29T15:21:15;16.10;99.90
51825;DHT22;37879;52.986;6.282;2023-05-29T15:23:41;16.00;99.80
51825;DHT22;37879;52.986;6.282;2023-05-29T15:26:09;15.90;99.90
51825;DHT22;37879;52.986;6.282;2023-05-29T15:28:35;15.90;99.90
51825;DHT22;37879;52.986;6.282;2023-05-29T15:31:01;15.80;99.90
51825;DHT22;37879;52.986;6.282;2023-05-29T15:33:27;15.90;99.90
51825;DHT22;37879;52.986;6.282;2023-05-29T15:35:52;16.00;99.90
51825;DHT22;37879;52.986;6.282;2023-05-29T15:38:18;16.00;99.90
51825;DHT22;37879;52.986;6.282;2023-05-29T15:40:44;16.00;99.90
51825;DHT22;37879;52.986;6.282;2023-05-29T15:43:10;16.10;99.90
51825;DHT22;37879;52.986;6.282;2023-05-29T15:45:39;15.90;99.90
51825;DHT22;37879;52.986;6.282;2023-05-29T15:48:05;15.70;99.90
51825;DHT22;37879;52.986;6.282;2023-05-29T15:50:31;15.70;99.90
51825;DHT22;37879;52.986;6.282;2023-05-29T15:52:56;15.60;99.90